sensor_id;sensor_type;location;lat;lon;timestamp;temperature;humidity
18291;DHT22;9271;48.590;8.866;2022-08-07T00:01:05;18.40;47.00
18291;DHT22;9271;48.590;8.866;2022-08-07T00:03:32;18.40;46.70
18291;DHT22;9271;48.590;8.866;2022-08-07T00:05:59;18.40;46.90
18291;DHT22;9271;48.590;8.866;2022-08-07T00:08:26;18.40;46.00
18291;DHT22;9271;48.590;8.866;2022-08-07T00:10:54;18.40;47.70
18291;DHT22;9271;48.590;8.866;2022-08-07T00:13:22;18.30;46.60
18291;DHT22;9271;48.590;8.866;2022-08-07T00:15:50;18.10;47.00
18291;DHT22;9271;48.590;8.866;2022-08-07T00:18:23;18.00;47.00
18291;DHT22;9271;48.590;8.866;2022-08-07T00:20:52;18.10;47.00
18291;DHT22;9271;48.590;8.866;2022-08-07T00:23:19;18.00;47.10
18291;DHT22;9271;48.590;8.866;2022-08-07T00:25:46;17.90;47.40
18291;DHT22;9271;48.590;8.866;2022-08-07T00:28:14;17.90;48.10
18291;DHT22;9271;48.590;8.866;2022-08-07T00:30:40;17.90;48.00
18291;DHT22;9271;48.590;8.866;2022-08-07T00:33:07;17.20;49.40
18291;DHT22;9271;48.590;8.866;2022-08-07T00:35:34;16.70;50.80
18291;DHT22;9271;48.590;8.866;2022-08-07T00:38:01;16.90;50.60
18291;DHT22;9271;48.590;8.866;2022-08-07T00:40:28;16.90;50.40
18291;DHT22;9271;48.590;8.866;2022-08-07T00:42:55;16.80;50.50
18291;DHT22;9271;48.590;8.866;2022-08-07T00:45:23;16.60;50.80
18291;DHT22;9271;48.590;8.866;2022-08-07T00:47:50;16.80;50.60
18291;DHT22;9271;48.590;8.866;2022-08-07T00:50:17;16.30;51.20
18291;DHT22;9271;48.590;8.866;2022-08-07T00:52:43;16.20;52.10
18291;DHT22;9271;48.590;8.866;2022-08-07T00:55:10;16.20;52.60
18291;DHT22;9271;48.590;8.866;2022-08-07T00:57:37;16.60;51.00
18291;DHT22;9271;48.590;8.866;2022-08-07T01:00:06;16.70;51.30
18291;DHT22;9271;48.590;8.866;2022-08-07T01:02:34;16.50;50.70
18291;DHT22;9271;48.590;8.866;2022-08-07T01:05:03;16.20;51.60
18291;DHT22;9271;48.590;8.866;2022-08-07T01:07:31;16.40;50.80
18291;DHT22;9271;48.590;8.866;2022-08-07T01:09:58;16.40;50.20
18291;DHT22;9271;48.590;8.866;2022-08-07T01:12:25;16.20;50.60
18291;DHT22;9271;48.590;8.866;2022-08-07T01:14:52;16.10;51.40
18291;DHT22;9271;48.590;8.866;2022-08-07T01:17:18;16.20;50.90
18291;DHT22;9271;48.590;8.866;2022-08-07T01:19:47;16.20;50.90
18291;DHT22;9271;48.590;8.866;2022-08-07T01:22:16;16.40;51.40
18291;DHT22;9271;48.590;8.866;2022-08-07T01:24:43;16.70;51.00
18291;DHT22;9271;48.590;8.866;2022-08-07T01:27:10;16.80;50.30
18291;DHT22;9271;48.590;8.866;2022-08-07T01:29:38;16.90;50.30
18291;DHT22;9271;48.590;8.866;2022-08-07T01:32:06;17.10;49.80
18291;DHT22;9271;48.590;8.866;2022-08-07T01:34:32;17.10;49.60
18291;DHT22;9271;48.590;8.866;2022-08-07T01:36:59;17.30;49.10
18291;DHT22;9271;48.590;8.866;2022-08-07T01:39:28;17.20;49.70
18291;DHT22;9271;48.590;8.866;2022-08-07T01:41:55;17.20;49.80
18291;DHT22;9271;48.590;8.866;2022-08-07T01:44:22;17.20;49.50
18291;DHT22;9271;48.590;8.866;2022-08-07T01:46:49;17.30;49.70
18291;DHT22;9271;48.590;8.866;2022-08-07T01:49:16;17.30;50.20
18291;DHT22;9271;48.590;8.866;2022-08-07T01:51:45;17.30;49.50
18291;DHT22;9271;48.590;8.866;2022-08-07T01:54:13;17.30;50.00
18291;DHT22;9271;48.590;8.866;2022-08-07T01:56:48;17.30;50.60
18291;DHT22;9271;48.590;8.866;2022-08-07T01:59:23;17.30;50.20
18291;DHT22;9271;48.590;8.866;2022-08-07T02:01:55;17.40;49.50
18291;DHT22;9271;48.590;8.866;2022-08-07T02:04:26;17.40;49.30
18291;DHT22;9271;48.590;8.866;2022-08-07T02:06:54;17.40;49.40
18291;DHT22;9271;48.590;8.866;2022-08-07T02:09:24;17.20;49.80
18291;DHT22;9271;48.590;8.866;2022-08-07T02:11:54;17.20;50.80
18291;DHT22;9271;48.590;8.866;2022-08-07T02:14:23;17.10;50.30
18291;DHT22;9271;48.590;8.866;2022-08-07T02:16:50;17.20;50.20
18291;DHT22;9271;48.590;8.866;2022-08-07T02:19:18;17.30;50.70
18291;DHT22;9271;48.590;8.866;2022-08-07T02:21:47;17.30;50.20
18291;DHT22;9271;48.590;8.866;2022-08-07T02:24:15;17.30;50.00
18291;DHT22;9271;48.590;8.866;2022-08-07T02:26:43;17.20;50.30
18291;DHT22;9271;48.590;8.866;2022-08-07T02:29:11;17.40;50.00
18291;DHT22;9271;48.590;8.866;2022-08-07T02:31:39;17.20;50.50
18291;DHT22;9271;48.590;8.866;2022-08-07T02:34:06;17.20;50.20
18291;DHT22;9271;48.590;8.866;2022-08-07T02:36:35;17.10;50.70
18291;DHT22;9271;48.590;8.866;2022-08-07T02:39:03;17.00;51.10
18291;DHT22;9271;48.590;8.866;2022-08-07T02:41:32;17.10;50.50
18291;DHT22;9271;48.590;8.866;2022-08-07T02:44:00;17.00;51.10
18291;DHT22;9271;48.590;8.866;2022-08-07T02:46:29;17.00;51.00
18291;DHT22;9271;48.590;8.866;2022-08-07T02:48:57;17.10;51.00
18291;DHT22;9271;48.590;8.866;2022-08-07T02:51:24;17.10;50.50
18291;DHT22;9271;48.590;8.866;2022-08-07T02:53:53;16.90;51.00
18291;DHT22;9271;48.590;8.866;2022-08-07T02:56:22;16.80;51.40
18291;DHT22;9271;48.590;8.866;2022-08-07T02:58:52;16.90;51.50
18291;DHT22;9271;48.590;8.866;2022-08-07T03:01:20;16.80;51.90
18291;DHT22;9271;48.590;8.866;2022-08-07T03:03:51;16.80;52.00
18291;DHT22;9271;48.590;8.866;2022-08-07T03:06:19;16.80;52.00
18291;DHT22;9271;48.590;8.866;2022-08-07T03:08:46;16.70;51.90
18291;DHT22;9271;48.590;8.866;2022-08-07T03:11:14;16.70;51.10
18291;DHT22;9271;48.590;8.866;2022-08-07T03:13:42;16.50;52.50
18291;DHT22;9271;48.590;8.866;2022-08-07T03:16:10;16.40;52.90
18291;DHT22;9271;48.590;8.866;2022-08-07T03:18:37;16.30;52.80
18291;DHT22;9271;48.590;8.866;2022-08-07T03:21:05;16.20;53.40
18291;DHT22;9271;48.590;8.866;2022-08-07T03:23:34;16.20;53.10
18291;DHT22;9271;48.590;8.866;2022-08-07T03:26:02;16.20;53.40
18291;DHT22;9271;48.590;8.866;2022-08-07T03:28:30;16.30;53.20
18291;DHT22;9271;48.590;8.866;2022-08-07T03:30:58;16.20;53.50
18291;DHT22;9271;48.590;8.866;2022-08-07T03:33:39;16.10;53.80
18291;DHT22;9271;48.590;8.866;2022-08-07T03:36:08;16.00;54.20
18291;DHT22;9271;48.590;8.866;2022-08-07T03:38:37;16.00;54.80
18291;DHT22;9271;48.590;8.866;2022-08-07T03:41:05;16.00;54.80
18291;DHT22;9271;48.590;8.866;2022-08-07T03:43:32;15.90;54.90
18291;DHT22;9271;48.590;8.866;2022-08-07T03:46:00;16.00;54.50
18291;DHT22;9271;48.590;8.866;2022-08-07T03:48:26;16.10;54.40
18291;DHT22;9271;48.590;8.866;2022-08-07T03:50:55;16.10;54.90
18291;DHT22;9271;48.590;8.866;2022-08-07T03:53:24;16.20;54.00
18291;DHT22;9271;48.590;8.866;2022-08-07T03:55:51;16.10;54.10
18291;DHT22;9271;48.590;8.866;2022-08-07T03:58:20;16.10;54.00
18291;DHT22;9271;48.590;8.866;2022-08-07T04:00:48;16.10;54.20
18291;DHT22;9271;48.590;8.866;2022-08-07T04:03:15;16.10;53.80
18291;DHT22;9271;48.590;8.866;2022-08-07T04:05:42;16.10;53.90
18291;DHT22;9271;48.590;8.866;2022-08-07T04:08:10;16.10;54.20
18291;DHT22;9271;48.590;8.866;2022-08-07T04:10:40;16.10;54.40
18291;DHT22;9271;48.590;8.866;2022-08-07T04:13:09;16.10;54.60
18291;DHT22;9271;48.590;8.866;2022-08-07T04:15:36;16.10;54.60
18291;DHT22;9271;48.590;8.866;2022-08-07T04:18:04;16.10;54.60
18291;DHT22;9271;48.590;8.866;2022-08-07T04:20:31;16.10;54.90
18291;DHT22;9271;48.590;8.866;2022-08-07T04:22:58;16.10;54.70
18291;DHT22;9271;48.590;8.866;2022-08-07T04:25:25;16.20;54.70
18291;DHT22;9271;48.590;8.866;2022-08-07T04:27:54;16.20;54.60
18291;DHT22;9271;48.590;8.866;2022-08-07T04:30:21;16.30;55.00
18291;DHT22;9271;48.590;8.866;2022-08-07T04:32:48;16.30;55.40
18291;DHT22;9271;48.590;8.866;2022-08-07T04:35:15;16.30;55.50
18291;DHT22;9271;48.590;8.866;2022-08-07T04:37:42;16.30;55.60
18291;DHT22;9271;48.590;8.866;2022-08-07T04:40:10;16.30;55.90
18291;DHT22;9271;48.590;8.866;2022-08-07T04:42:37;16.30;55.50
18291;DHT22;9271;48.590;8.866;2022-08-07T04:45:06;16.30;55.50
18291;DHT22;9271;48.590;8.866;2022-08-07T04:47:37;16.40;55.60
18291;DHT22;9271;48.590;8.866;2022-08-07T04:50:09;16.40;55.60
18291;DHT22;9271;48.590;8.866;2022-08-07T04:52:42;16.40;54.70
18291;DHT22;9271;48.590;8.866;2022-08-07T04:55:14;16.40;55.50
18291;DHT22;9271;48.590;8.866;2022-08-07T04:57:48;16.50;55.80
18291;DHT22;9271;48.590;8.866;2022-08-07T05:00:22;16.40;55.80
18291;DHT22;9271;48.590;8.866;2022-08-07T05:02:55;16.60;55.30
18291;DHT22;9271;48.590;8.866;2022-08-07T05:05:27;16.70;56.10
18291;DHT22;9271;48.590;8.866;2022-08-07T05:07:59;16.80;55.40
18291;DHT22;9271;48.590;8.866;2022-08-07T05:10:31;16.90;55.90
18291;DHT22;9271;48.590;8.866;2022-08-07T05:13:02;17.00;55.30
18291;DHT22;9271;48.590;8.866;2022-08-07T05:15:36;17.10;55.20
18291;DHT22;9271;48.590;8.866;2022-08-07T05:18:06;17.30;54.90
18291;DHT22;9271;48.590;8.866;2022-08-07T05:20:40;17.30;55.00
18291;DHT22;9271;48.590;8.866;2022-08-07T05:23:11;17.40;55.50
18291;DHT22;9271;48.590;8.866;2022-08-07T05:25:41;17.60;54.80
18291;DHT22;9271;48.590;8.866;2022-08-07T05:28:08;17.70;55.10
18291;DHT22;9271;48.590;8.866;2022-08-07T05:30:38;17.80;54.70
18291;DHT22;9271;48.590;8.866;2022-08-07T05:33:06;17.90;54.50
18291;DHT22;9271;48.590;8.866;2022-08-07T05:35:35;18.10;54.30
18291;DHT22;9271;48.590;8.866;2022-08-07T05:38:03;18.20;54.50
18291;DHT22;9271;48.590;8.866;2022-08-07T05:40:31;18.30;53.90
18291;DHT22;9271;48.590;8.866;2022-08-07T05:42:59;18.50;53.50
18291;DHT22;9271;48.590;8.866;2022-08-07T05:45:26;18.70;53.70
18291;DHT22;9271;48.590;8.866;2022-08-07T05:47:56;18.70;53.80
18291;DHT22;9271;48.590;8.866;2022-08-07T05:50:23;18.90;53.40
18291;DHT22;9271;48.590;8.866;2022-08-07T05:52:50;19.10;53.30
18291;DHT22;9271;48.590;8.866;2022-08-07T05:55:17;19.20;52.90
18291;DHT22;9271;48.590;8.866;2022-08-07T05:57:44;19.30;53.00
18291;DHT22;9271;48.590;8.866;2022-08-07T06:00:12;19.40;53.10
18291;DHT22;9271;48.590;8.866;2022-08-07T06:02:39;19.50;53.30
18291;DHT22;9271;48.590;8.866;2022-08-07T06:05:11;19.70;53.20
18291;DHT22;9271;48.590;8.866;2022-08-07T06:07:38;19.90;52.80
18291;DHT22;9271;48.590;8.866;2022-08-07T06:10:08;20.10;52.60
18291;DHT22;9271;48.590;8.866;2022-08-07T06:12:35;20.20;52.10
18291;DHT22;9271;48.590;8.866;2022-08-07T06:15:03;20.20;52.50
18291;DHT22;9271;48.590;8.866;2022-08-07T06:17:31;20.30;52.90
18291;DHT22;9271;48.590;8.866;2022-08-07T06:19:58;20.10;53.00
18291;DHT22;9271;48.590;8.866;2022-08-07T06:22:28;19.90;53.50
18291;DHT22;9271;48.590;8.866;2022-08-07T06:24:57;19.90;54.60
18291;DHT22;9271;48.590;8.866;2022-08-07T06:27:24;20.00;54.10
18291;DHT22;9271;48.590;8.866;2022-08-07T06:29:51;20.10;53.80
18291;DHT22;9271;48.590;8.866;2022-08-07T06:32:18;20.30;54.00
18291;DHT22;9271;48.590;8.866;2022-08-07T06:34:45;20.90;53.50
18291;DHT22;9271;48.590;8.866;2022-08-07T06:37:12;21.20;53.30
18291;DHT22;9271;48.590;8.866;2022-08-07T06:39:40;21.50;52.40
18291;DHT22;9271;48.590;8.866;2022-08-07T06:42:09;21.70;53.20
18291;DHT22;9271;48.590;8.866;2022-08-07T06:44:37;21.90;53.50
18291;DHT22;9271;48.590;8.866;2022-08-07T06:47:05;22.20;53.80
18291;DHT22;9271;48.590;8.866;2022-08-07T06:49:32;22.40;52.60
18291;DHT22;9271;48.590;8.866;2022-08-07T06:51:59;22.30;54.10
18291;DHT22;9271;48.590;8.866;2022-08-07T06:54:27;22.60;54.50
18291;DHT22;9271;48.590;8.866;2022-08-07T06:56:56;22.60;55.10
18291;DHT22;9271;48.590;8.866;2022-08-07T06:59:26;22.40;57.00
18291;DHT22;9271;48.590;8.866;2022-08-07T07:01:55;22.30;57.00
18291;DHT22;9271;48.590;8.866;2022-08-07T07:04:23;22.20;57.00
18291;DHT22;9271;48.590;8.866;2022-08-07T07:06:50;22.60;57.80
18291;DHT22;9271;48.590;8.866;2022-08-07T07:09:22;22.60;56.40
18291;DHT22;9271;48.590;8.866;2022-08-07T07:12:13;23.00;57.20
18291;DHT22;9271;48.590;8.866;2022-08-07T07:14:48;23.20;56.10
18291;DHT22;9271;48.590;8.866;2022-08-07T07:17:20;23.40;56.30
18291;DHT22;9271;48.590;8.866;2022-08-07T07:19:51;23.90;55.10
18291;DHT22;9271;48.590;8.866;2022-08-07T07:22:20;24.90;54.10
18291;DHT22;9271;48.590;8.866;2022-08-07T07:24:48;25.60;52.40
18291;DHT22;9271;48.590;8.866;2022-08-07T07:27:19;27.10;50.00
18291;DHT22;9271;48.590;8.866;2022-08-07T07:29:50;28.90;46.70
18291;DHT22;9271;48.590;8.866;2022-08-07T07:32:18;29.90;44.00
18291;DHT22;9271;48.590;8.866;2022-08-07T07:34:48;30.60;42.20
18291;DHT22;9271;48.590;8.866;2022-08-07T07:37:17;30.90;41.80
18291;DHT22;9271;48.590;8.866;2022-08-07T07:39:45;30.60;41.40
18291;DHT22;9271;48.590;8.866;2022-08-07T07:42:15;31.60;41.00
18291;DHT22;9271;48.590;8.866;2022-08-07T07:44:44;33.30;38.50
18291;DHT22;9271;48.590;8.866;2022-08-07T07:47:13;34.00;35.80
18291;DHT22;9271;48.590;8.866;2022-08-07T07:49:42;34.30;34.40
18291;DHT22;9271;48.590;8.866;2022-08-07T07:52:11;34.20;35.10
18291;DHT22;9271;48.590;8.866;2022-08-07T07:54:41;35.00;33.50
18291;DHT22;9271;48.590;8.866;2022-08-07T07:59:49;34.70;33.70
18291;DHT22;9271;48.590;8.866;2022-08-07T08:02:17;35.20;33.50
18291;DHT22;9271;48.590;8.866;2022-08-07T08:04:45;36.50;31.10
18291;DHT22;9271;48.590;8.866;2022-08-07T08:07:14;36.60;31.30
18291;DHT22;9271;48.590;8.866;2022-08-07T08:09:42;36.50;29.70
18291;DHT22;9271;48.590;8.866;2022-08-07T08:12:10;35.90;31.10
18291;DHT22;9271;48.590;8.866;2022-08-07T08:14:37;35.90;30.60
18291;DHT22;9271;48.590;8.866;2022-08-07T08:17:08;36.70;30.90
18291;DHT22;9271;48.590;8.866;2022-08-07T08:19:36;36.60;29.80
18291;DHT22;9271;48.590;8.866;2022-08-07T08:22:06;36.50;29.70
18291;DHT22;9271;48.590;8.866;2022-08-07T08:24:55;36.90;29.60
18291;DHT22;9271;48.590;8.866;2022-08-07T08:27:42;38.50;28.00
18291;DHT22;9271;48.590;8.866;2022-08-07T08:30:11;37.80;27.90
18291;DHT22;9271;48.590;8.866;2022-08-07T08:32:43;38.10;27.80
18291;DHT22;9271;48.590;8.866;2022-08-07T08:35:16;39.30;27.10
18291;DHT22;9271;48.590;8.866;2022-08-07T08:37:45;38.40;26.50
18291;DHT22;9271;48.590;8.866;2022-08-07T08:40:20;38.00;27.60
18291;DHT22;9271;48.590;8.866;2022-08-07T08:42:53;38.10;27.40
18291;DHT22;9271;48.590;8.866;2022-08-07T08:45:28;36.00;28.50
18291;DHT22;9271;48.590;8.866;2022-08-07T08:48:05;36.60;28.60
18291;DHT22;9271;48.590;8.866;2022-08-07T08:50:38;36.80;28.10
18291;DHT22;9271;48.590;8.866;2022-08-07T08:53:13;35.90;28.50
18291;DHT22;9271;48.590;8.866;2022-08-07T08:55:47;36.30;29.30
18291;DHT22;9271;48.590;8.866;2022-08-07T08:58:28;37.20;28.20
18291;DHT22;9271;48.590;8.866;2022-08-07T09:01:01;38.20;27.60
18291;DHT22;9271;48.590;8.866;2022-08-07T09:03:33;39.00;26.20
18291;DHT22;9271;48.590;8.866;2022-08-07T09:06:07;39.40;25.20
18291;DHT22;9271;48.590;8.866;2022-08-07T09:08:40;39.90;24.20
18291;DHT22;9271;48.590;8.866;2022-08-07T09:11:17;39.80;24.10
18291;DHT22;9271;48.590;8.866;2022-08-07T09:13:57;38.40;24.80
18291;DHT22;9271;48.590;8.866;2022-08-07T09:16:35;38.00;26.00
18291;DHT22;9271;48.590;8.866;2022-08-07T09:19:27;36.70;26.70
18291;DHT22;9271;48.590;8.866;2022-08-07T09:22:06;37.10;26.80
18291;DHT22;9271;48.590;8.866;2022-08-07T09:24:45;38.50;25.40
18291;DHT22;9271;48.590;8.866;2022-08-07T09:27:23;39.00;24.50
18291;DHT22;9271;48.590;8.866;2022-08-07T09:29:56;38.80;26.30
18291;DHT22;9271;48.590;8.866;2022-08-07T09:32:45;38.80;24.10
18291;DHT22;9271;48.590;8.866;2022-08-07T09:35:21;39.00;24.10
18291;DHT22;9271;48.590;8.866;2022-08-07T09:37:58;40.00;23.30
18291;DHT22;9271;48.590;8.866;2022-08-07T09:40:34;40.40;23.30
18291;DHT22;9271;48.590;8.866;2022-08-07T09:43:15;40.40;23.60
18291;DHT22;9271;48.590;8.866;2022-08-07T09:45:54;40.60;23.10
18291;DHT22;9271;48.590;8.866;2022-08-07T09:48:33;41.80;22.50
18291;DHT22;9271;48.590;8.866;2022-08-07T09:51:14;41.20;22.30
18291;DHT22;9271;48.590;8.866;2022-08-07T09:53:50;40.50;22.70
18291;DHT22;9271;48.590;8.866;2022-08-07T09:56:49;40.60;23.00
18291;DHT22;9271;48.590;8.866;2022-08-07T09:59:32;40.80;23.10
18291;DHT22;9271;48.590;8.866;2022-08-07T10:05:06;40.00;23.20
18291;DHT22;9271;48.590;8.866;2022-08-07T10:08:01;39.70;22.60
18291;DHT22;9271;48.590;8.866;2022-08-07T10:10:37;38.70;22.90
18291;DHT22;9271;48.590;8.866;2022-08-07T10:13:21;39.00;23.30
18291;DHT22;9271;48.590;8.866;2022-08-07T10:16:02;39.50;23.90
18291;DHT22;9271;48.590;8.866;2022-08-07T10:18:44;40.10;23.60
18291;DHT22;9271;48.590;8.866;2022-08-07T10:21:23;40.40;23.20
18291;DHT22;9271;48.590;8.866;2022-08-07T10:24:03;40.90;22.40
18291;DHT22;9271;48.590;8.866;2022-08-07T10:26:49;40.10;21.70
18291;DHT22;9271;48.590;8.866;2022-08-07T10:29:33;41.00;22.50
18291;DHT22;9271;48.590;8.866;2022-08-07T10:32:17;42.20;22.50
18291;DHT22;9271;48.590;8.866;2022-08-07T10:34:56;41.90;21.50
18291;DHT22;9271;48.590;8.866;2022-08-07T10:37:35;41.80;21.60
18291;DHT22;9271;48.590;8.866;2022-08-07T10:40:11;42.30;20.60
18291;DHT22;9271;48.590;8.866;2022-08-07T10:42:41;41.70;20.50
18291;DHT22;9271;48.590;8.866;2022-08-07T10:45:18;42.20;22.00
18291;DHT22;9271;48.590;8.866;2022-08-07T10:47:56;42.30;20.60
18291;DHT22;9271;48.590;8.866;2022-08-07T10:50:28;42.70;20.60
18291;DHT22;9271;48.590;8.866;2022-08-07T10:53:02;43.50;18.90
18291;DHT22;9271;48.590;8.866;2022-08-07T10:55:40;44.30;19.10
18291;DHT22;9271;48.590;8.866;2022-08-07T10:58:25;44.30;19.40
18291;DHT22;9271;48.590;8.866;2022-08-07T11:01:03;42.70;18.80
18291;DHT22;9271;48.590;8.866;2022-08-07T11:03:40;41.40;20.50
18291;DHT22;9271;48.590;8.866;2022-08-07T11:06:12;40.90;20.40
18291;DHT22;9271;48.590;8.866;2022-08-07T11:08:46;41.40;20.50
18291;DHT22;9271;48.590;8.866;2022-08-07T11:11:20;42.40;18.90
18291;DHT22;9271;48.590;8.866;2022-08-07T11:13:50;43.30;18.20
18291;DHT22;9271;48.590;8.866;2022-08-07T11:16:21;43.50;18.70
18291;DHT22;9271;48.590;8.866;2022-08-07T11:18:55;44.40;18.40
18291;DHT22;9271;48.590;8.866;2022-08-07T11:21:30;44.20;17.90
18291;DHT22;9271;48.590;8.866;2022-08-07T11:24:04;43.70;18.40
18291;DHT22;9271;48.590;8.866;2022-08-07T11:26:42;44.40;18.20
18291;DHT22;9271;48.590;8.866;2022-08-07T11:29:15;42.90;17.60
18291;DHT22;9271;48.590;8.866;2022-08-07T11:31:50;42.50;19.70
18291;DHT22;9271;48.590;8.866;2022-08-07T11:34:27;42.60;18.40
18291;DHT22;9271;48.590;8.866;2022-08-07T11:37:01;41.80;18.10
18291;DHT22;9271;48.590;8.866;2022-08-07T11:39:43;42.60;19.60
18291;DHT22;9271;48.590;8.866;2022-08-07T11:42:18;43.30;18.60
18291;DHT22;9271;48.590;8.866;2022-08-07T11:44:54;44.60;17.80
18291;DHT22;9271;48.590;8.866;2022-08-07T11:47:40;44.60;16.10
18291;DHT22;9271;48.590;8.866;2022-08-07T11:50:20;43.80;16.70
18291;DHT22;9271;48.590;8.866;2022-08-07T11:53:00;43.70;16.30
18291;DHT22;9271;48.590;8.866;2022-08-07T11:55:38;42.70;18.30
18291;DHT22;9271;48.590;8.866;2022-08-07T11:58:15;43.80;18.10
18291;DHT22;9271;48.590;8.866;2022-08-07T12:00:54;45.40;17.40
18291;DHT22;9271;48.590;8.866;2022-08-07T12:03:47;45.30;17.00
18291;DHT22;9271;48.590;8.866;2022-08-07T12:06:31;45.10;15.90
18291;DHT22;9271;48.590;8.866;2022-08-07T12:09:04;44.80;16.70
18291;DHT22;9271;48.590;8.866;2022-08-07T12:11:37;44.70;17.40
18291;DHT22;9271;48.590;8.866;2022-08-07T12:14:10;43.90;17.20
18291;DHT22;9271;48.590;8.866;2022-08-07T12:16:43;44.90;18.00
18291;DHT22;9271;48.590;8.866;2022-08-07T12:19:18;45.50;16.80
18291;DHT22;9271;48.590;8.866;2022-08-07T12:21:51;45.30;16.90
18291;DHT22;9271;48.590;8.866;2022-08-07T12:24:24;45.50;16.80
18291;DHT22;9271;48.590;8.866;2022-08-07T12:26:58;46.10;16.50
18291;DHT22;9271;48.590;8.866;2022-08-07T12:29:32;46.20;14.80
18291;DHT22;9271;48.590;8.866;2022-08-07T12:32:08;45.70;15.30
18291;DHT22;9271;48.590;8.866;2022-08-07T12:34:39;45.10;17.00
18291;DHT22;9271;48.590;8.866;2022-08-07T12:37:10;44.70;15.80
18291;DHT22;9271;48.590;8.866;2022-08-07T12:39:39;44.80;16.80
18291;DHT22;9271;48.590;8.866;2022-08-07T12:42:09;44.60;16.30
18291;DHT22;9271;48.590;8.866;2022-08-07T12:44:38;44.80;16.30
18291;DHT22;9271;48.590;8.866;2022-08-07T12:47:11;43.90;17.70
18291;DHT22;9271;48.590;8.866;2022-08-07T12:49:48;42.60;17.10
18291;DHT22;9271;48.590;8.866;2022-08-07T12:52:22;43.40;17.80
18291;DHT22;9271;48.590;8.866;2022-08-07T12:54:58;42.60;16.70
18291;DHT22;9271;48.590;8.866;2022-08-07T12:57:29;41.90;18.20
18291;DHT22;9271;48.590;8.866;2022-08-07T12:59:59;42.60;17.70
18291;DHT22;9271;48.590;8.866;2022-08-07T13:02:56;42.70;17.60
18291;DHT22;9271;48.590;8.866;2022-08-07T13:05:39;40.70;18.60
18291;DHT22;9271;48.590;8.866;2022-08-07T13:08:30;41.90;19.50
18291;DHT22;9271;48.590;8.866;2022-08-07T13:11:08;43.60;16.90
18291;DHT22;9271;48.590;8.866;2022-08-07T13:13:46;43.40;17.20
18291;DHT22;9271;48.590;8.866;2022-08-07T13:16:24;42.90;17.30
18291;DHT22;9271;48.590;8.866;2022-08-07T13:18:59;42.60;18.00
18291;DHT22;9271;48.590;8.866;2022-08-07T13:21:30;42.60;18.00
18291;DHT22;9271;48.590;8.866;2022-08-07T13:24:03;41.90;18.00
18291;DHT22;9271;48.590;8.866;2022-08-07T13:26:38;41.60;18.90
18291;DHT22;9271;48.590;8.866;2022-08-07T13:29:10;42.60;17.80
18291;DHT22;9271;48.590;8.866;2022-08-07T13:31:47;43.50;17.70
18291;DHT22;9271;48.590;8.866;2022-08-07T13:34:22;42.70;17.10
18291;DHT22;9271;48.590;8.866;2022-08-07T13:36:55;40.40;18.80
18291;DHT22;9271;48.590;8.866;2022-08-07T13:39:28;39.80;20.20
18291;DHT22;9271;48.590;8.866;2022-08-07T13:42:00;38.10;20.80
18291;DHT22;9271;48.590;8.866;2022-08-07T13:44:31;37.60;21.40
18291;DHT22;9271;48.590;8.866;2022-08-07T13:47:00;37.90;21.50
18291;DHT22;9271;48.590;8.866;2022-08-07T13:49:33;39.50;21.10
18291;DHT22;9271;48.590;8.866;2022-08-07T13:52:03;40.00;19.90
18291;DHT22;9271;48.590;8.866;2022-08-07T13:54:31;38.60;21.00
18291;DHT22;9271;48.590;8.866;2022-08-07T13:57:00;38.40;20.50
18291;DHT22;9271;48.590;8.866;2022-08-07T13:59:32;37.90;21.00
18291;DHT22;9271;48.590;8.866;2022-08-07T14:02:05;38.90;20.30
18291;DHT22;9271;48.590;8.866;2022-08-07T14:04:43;39.30;21.60
18291;DHT22;9271;48.590;8.866;2022-08-07T14:07:11;40.20;20.80
18291;DHT22;9271;48.590;8.866;2022-08-07T14:09:40;40.60;19.80
18291;DHT22;9271;48.590;8.866;2022-08-07T14:12:12;40.10;19.80
18291;DHT22;9271;48.590;8.866;2022-08-07T14:14:42;40.50;19.40
18291;DHT22;9271;48.590;8.866;2022-08-07T14:17:13;40.70;20.00
18291;DHT22;9271;48.590;8.866;2022-08-07T14:19:46;40.30;19.90
18291;DHT22;9271;48.590;8.866;2022-08-07T14:22:17;39.50;20.30
18291;DHT22;9271;48.590;8.866;2022-08-07T14:24:50;38.90;21.10
18291;DHT22;9271;48.590;8.866;2022-08-07T14:27:25;38.80;20.70
18291;DHT22;9271;48.590;8.866;2022-08-07T14:29:56;38.90;20.30
18291;DHT22;9271;48.590;8.866;2022-08-07T14:32:25;38.20;21.60
18291;DHT22;9271;48.590;8.866;2022-08-07T14:34:54;37.20;21.80
18291;DHT22;9271;48.590;8.866;2022-08-07T14:37:22;37.50;21.80
18291;DHT22;9271;48.590;8.866;2022-08-07T14:39:49;37.70;21.00
18291;DHT22;9271;48.590;8.866;2022-08-07T14:42:23;37.60;21.20
18291;DHT22;9271;48.590;8.866;2022-08-07T14:44:53;36.60;21.40
18291;DHT22;9271;48.590;8.866;2022-08-07T14:47:22;36.40;22.90
18291;DHT22;9271;48.590;8.866;2022-08-07T14:49:52;37.30;22.40
18291;DHT22;9271;48.590;8.866;2022-08-07T14:52:20;37.70;22.20
18291;DHT22;9271;48.590;8.866;2022-08-07T14:54:48;37.40;22.80
18291;DHT22;9271;48.590;8.866;2022-08-07T14:57:17;37.70;22.90
18291;DHT22;9271;48.590;8.866;2022-08-07T14:59:45;37.80;22.10
18291;DHT22;9271;48.590;8.866;2022-08-07T15:02:14;37.80;22.00
18291;DHT22;9271;48.590;8.866;2022-08-07T15:04:44;38.80;21.40
18291;DHT22;9271;48.590;8.866;2022-08-07T15:07:17;38.60;21.30
18291;DHT22;9271;48.590;8.866;2022-08-07T15:09:47;37.60;21.70
18291;DHT22;9271;48.590;8.866;2022-08-07T15:12:18;36.80;22.30
18291;DHT22;9271;48.590;8.866;2022-08-07T15:14:49;36.40;23.10
18291;DHT22;9271;48.590;8.866;2022-08-07T15:17:19;36.40;23.20
18291;DHT22;9271;48.590;8.866;2022-08-07T15:19:50;37.00;23.00
18291;DHT22;9271;48.590;8.866;2022-08-07T15:22:23;37.20;22.40
18291;DHT22;9271;48.590;8.866;2022-08-07T15:24:51;35.80;23.10
18291;DHT22;9271;48.590;8.866;2022-08-07T15:27:21;35.50;23.60
18291;DHT22;9271;48.590;8.866;2022-08-07T15:29:51;35.20;23.80
18291;DHT22;9271;48.590;8.866;2022-08-07T15:32:19;34.80;24.50
18291;DHT22;9271;48.590;8.866;2022-08-07T15:34:48;34.00;25.50
18291;DHT22;9271;48.590;8.866;2022-08-07T15:37:18;33.90;25.50
18291;DHT22;9271;48.590;8.866;2022-08-07T15:39:50;33.90;24.70
18291;DHT22;9271;48.590;8.866;2022-08-07T15:42:35;33.90;25.20
18291;DHT22;9271;48.590;8.866;2022-08-07T15:45:06;34.10;25.80
18291;DHT22;9271;48.590;8.866;2022-08-07T15:47:35;34.40;25.60
18291;DHT22;9271;48.590;8.866;2022-08-07T15:50:04;34.60;25.60
18291;DHT22;9271;48.590;8.866;2022-08-07T15:52:33;34.40;25.10
18291;DHT22;9271;48.590;8.866;2022-08-07T15:55:06;34.20;24.50
18291;DHT22;9271;48.590;8.866;2022-08-07T15:57:33;33.80;24.90
18291;DHT22;9271;48.590;8.866;2022-08-07T16:00:02;33.40;25.80
18291;DHT22;9271;48.590;8.866;2022-08-07T16:02:32;33.20;25.40
18291;DHT22;9271;48.590;8.866;2022-08-07T16:05:02;32.80;26.80
18291;DHT22;9271;48.590;8.866;2022-08-07T16:07:41;33.20;26.40
18291;DHT22;9271;48.590;8.866;2022-08-07T16:10:13;33.60;25.80
18291;DHT22;9271;48.590;8.866;2022-08-07T16:12:50;33.00;26.00
18291;DHT22;9271;48.590;8.866;2022-08-07T16:15:34;32.90;25.90
18291;DHT22;9271;48.590;8.866;2022-08-07T16:18:08;32.80;26.10